createdAt,value
2022-07-28T00:01:11.445Z,101253.06
2022-07-28T00:03:40.654Z,101260.19
2022-07-28T00:06:08.496Z,101263.75
2022-07-28T00:08:36.294Z,101263.81
2022-07-28T00:11:04.155Z,101257.63
2022-07-28T00:13:32.017Z,101264.72
2022-07-28T00:15:59.904Z,101269.19
2022-07-28T00:18:27.733Z,101269.25
2022-07-28T00:20:58.110Z,101267.50
2022-07-28T00:23:38.704Z,101271.97
2022-07-28T00:26:08.673Z,101276.44
2022-07-28T00:28:36.724Z,101264.03
2022-07-28T00:31:04.997Z,101275.59
2022-07-28T00:33:35.618Z,101272.03
2022-07-28T00:36:05.581Z,101271.19
2022-07-28T00:38:34.369Z,101269.44
2022-07-28T00:41:12.536Z,101266.75
2022-07-28T00:43:41.089Z,101272.09
2022-07-28T00:46:09.957Z,101271.25
2022-07-28T00:48:39.264Z,101273.03
2022-07-28T00:51:10.419Z,101270.38
2022-07-28T00:53:38.652Z,101268.66
2022-07-28T00:56:07.556Z,101273.09
2022-07-28T00:58:36.237Z,101274.03
2022-07-28T01:01:04.803Z,101267.81
2022-07-28T01:03:33.740Z,101271.38
2022-07-28T01:06:11.334Z,101277.63
2022-07-28T01:08:53.656Z,101275.88
2022-07-28T01:11:30.962Z,101276.75
2022-07-28T01:14:07.564Z,101280.31
2022-07-28T01:16:41.557Z,101274.13
2022-07-28T01:19:18.849Z,101282.13
2022-07-28T01:21:49.805Z,101284.81
2022-07-28T01:24:25.633Z,101278.56
2022-07-28T01:26:59.326Z,101278.56
2022-07-28T01:29:42.768Z,101270.59
2022-07-28T01:32:17.435Z,101284.81
2022-07-28T01:34:51.567Z,101282.13
2022-07-28T01:37:21.569Z,101275.94
2022-07-28T01:39:53.422Z,101279.50
2022-07-28T01:42:24.005Z,101272.38
2022-07-28T01:44:55.085Z,101272.41
2022-07-28T01:47:26.324Z,101272.41
2022-07-28T01:49:56.583Z,101269.75
2022-07-28T01:52:26.118Z,101268.84
2022-07-28T01:54:55.934Z,101267.97
2022-07-28T01:57:26.346Z,101263.53
2022-07-28T01:59:56.059Z,101265.31
2022-07-28T02:02:28.096Z,101268.84
2022-07-28T02:04:58.498Z,101266.19
2022-07-28T02:07:28.588Z,101269.75
2022-07-28T02:09:58.739Z,101271.53
2022-07-28T02:12:28.860Z,101267.97
2022-07-28T02:14:59.477Z,101274.16
2022-07-28T02:17:34.009Z,101262.63
2022-07-28T02:20:02.652Z,101259.94
2022-07-28T02:22:31.891Z,101268.81
2022-07-28T02:24:59.834Z,101267.91
2022-07-28T02:27:35.445Z,101263.50
2022-07-28T02:30:08.388Z,101267.91
2022-07-28T02:32:42.187Z,101271.47
2022-07-28T02:35:21.627Z,101275.88
2022-07-28T02:37:55.412Z,101272.34
2022-07-28T02:40:23.633Z,101271.47
2022-07-28T02:42:54.089Z,101278.56
2022-07-28T02:45:26.468Z,101278.53
2022-07-28T02:47:59.706Z,101278.53
2022-07-28T02:50:29.595Z,101286.53
2022-07-28T02:53:02.036Z,101287.38
2022-07-28T02:55:44.449Z,101277.63
2022-07-28T02:58:13.269Z,101281.13
2022-07-28T03:00:41.765Z,101287.34
2022-07-28T03:03:11.771Z,101296.19
2022-07-28T03:05:41.469Z,101290.84
2022-07-28T03:08:09.646Z,101302.34
2022-07-28T03:10:37.930Z,101302.34
2022-07-28T03:13:07.867Z,101303.16
2022-07-28T03:15:37.659Z,101296.06
2022-07-28T03:18:06.769Z,101292.50
2022-07-28T03:20:36.425Z,101307.56
2022-07-28T03:23:04.363Z,101309.28
2022-07-28T03:25:40.472Z,101306.59
2022-07-28T03:28:14.089Z,101304.84
2022-07-28T03:30:44.132Z,101311.00
2022-07-28T03:33:12.836Z,101311.00
2022-07-28T03:35:48.180Z,101315.41
2022-07-28T03:38:21.651Z,101310.06
2022-07-28T03:40:50.474Z,101312.75
2022-07-28T03:43:20.954Z,101316.25
2022-07-28T03:45:49.157Z,101313.59
2022-07-28T03:48:17.444Z,101320.66
2022-07-28T03:50:46.601Z,101311.78
2022-07-28T03:53:20.881Z,101307.34
2022-07-28T03:55:51.228Z,101310.88
2022-07-28T03:58:19.368Z,101318.84
2022-07-28T04:00:48.028Z,101325.94
2022-07-28T04:03:36.408Z,101316.22
2022-07-28T04:06:05.769Z,101316.22
2022-07-28T04:08:33.608Z,101311.78
2022-07-28T04:11:01.449Z,101305.59
2022-07-28T04:13:29.259Z,101300.28
2022-07-28T04:15:57.344Z,101309.16
2022-07-28T04:18:25.223Z,101311.81
2022-07-28T04:20:53.045Z,101314.50
2022-07-28T04:23:22.498Z,101311.81
2022-07-28T04:25:50.311Z,101310.09
2022-07-28T04:28:18.132Z,101318.06
2022-07-28T04:30:46.208Z,101308.34
2022-07-28T04:33:14.409Z,101313.72
2022-07-28T04:35:42.380Z,101305.78
2022-07-28T04:38:12.168Z,101305.78
2022-07-28T04:40:42.203Z,101309.34
2022-07-28T04:43:10.337Z,101300.50
2022-07-28T04:45:38.765Z,101306.75
2022-07-28T04:48:14.303Z,101311.25
2022-07-28T04:50:46.442Z,101305.91
2022-07-28T04:53:14.273Z,101311.28
2022-07-28T04:55:43.480Z,101310.41
2022-07-28T04:58:12.555Z,101316.66
2022-07-28T05:00:40.591Z,101315.78
2022-07-28T05:03:08.407Z,101307.81
2022-07-28T05:05:36.244Z,101322.03
2022-07-28T05:08:04.178Z,101319.38
2022-07-28T05:10:32.096Z,101314.13
2022-07-28T05:13:05.913Z,101315.88
2022-07-28T05:15:34.039Z,101317.66
2022-07-28T05:18:02.192Z,101319.44
2022-07-28T05:20:30.119Z,101324.75
2022-07-28T05:22:58.451Z,101317.66
2022-07-28T05:25:26.978Z,101323.88
2022-07-28T05:27:55.809Z,101328.28
2022-07-28T05:30:25.319Z,101330.94
2022-07-28T05:32:59.206Z,101325.56
2022-07-28T05:35:27.303Z,101332.63
2022-07-28T05:37:55.096Z,101340.59
2022-07-28T05:40:22.950Z,101337.91
2022-07-28T05:42:50.819Z,101343.22
2022-07-28T05:45:18.659Z,101346.75
2022-07-28T05:47:49.587Z,101347.56
2022-07-28T05:50:18.813Z,101336.84
2022-07-28T05:52:47.012Z,101343.03
2022-07-28T05:55:15.363Z,101344.75
2022-07-28T05:57:43.193Z,101344.69
2022-07-28T06:00:13.531Z,101341.03
2022-07-28T06:02:41.549Z,101354.31
2022-07-28T06:05:11.392Z,101353.34
2022-07-28T06:07:42.756Z,101350.63
2022-07-28T06:10:13.604Z,101357.69
2022-07-28T06:12:42.233Z,101352.25
2022-07-28T06:15:14.262Z,101356.69
2022-07-28T06:17:42.419Z,101359.28
2022-07-28T06:20:12.924Z,101360.97
2022-07-28T06:22:45.012Z,101356.47
2022-07-28T06:25:15.129Z,101364.41
2022-07-28T06:27:43.364Z,101358.09
2022-07-28T06:30:11.954Z,101366.06
2022-07-28T06:32:39.905Z,101367.75
2022-07-28T06:35:09.099Z,101364.13
2022-07-28T06:37:38.263Z,101362.25
2022-07-28T06:40:07.472Z,101361.28
2022-07-28T06:42:35.332Z,101356.75
2022-07-28T06:45:03.243Z,101356.69
2022-07-28T06:47:31.049Z,101357.50
2022-07-28T06:49:59.129Z,101358.28
2022-07-28T06:52:27.316Z,101357.31
2022-07-28T06:54:58.303Z,101352.75
2022-07-28T06:57:33.445Z,101356.25
2022-07-28T07:00:04.001Z,101363.31
2022-07-28T07:02:31.852Z,101363.19
2022-07-28T07:04:59.884Z,101355.97
2022-07-28T07:07:27.714Z,101363.94
2022-07-28T07:09:56.903Z,101353.16
2022-07-28T07:12:24.821Z,101358.50
2022-07-28T07:14:52.808Z,101350.34
2022-07-28T07:17:20.762Z,101355.69
2022-07-28T07:19:48.580Z,101355.56
2022-07-28T07:22:17.068Z,101358.97
2022-07-28T07:24:45.076Z,101357.09
2022-07-28T07:27:15.077Z,101349.03
2022-07-28T07:29:42.906Z,101360.56
2022-07-28T07:32:11.188Z,101357.78
2022-07-28T07:34:40.463Z,101358.59
2022-07-28T07:37:13.619Z,101349.66
2022-07-28T07:39:42.402Z,101353.22
2022-07-28T07:42:10.533Z,101351.28
2022-07-28T07:44:39.705Z,101343.84
2022-07-28T07:47:09.856Z,101355.31
2022-07-28T07:49:45.639Z,101353.34
2022-07-28T07:52:14.318Z,101349.63
2022-07-28T07:54:42.416Z,101356.56
2022-07-28T07:57:10.339Z,101347.34
2022-07-28T07:59:39.553Z,101348.09
2022-07-28T08:02:07.845Z,101346.97
2022-07-28T08:04:37.579Z,101344.19
2022-07-28T08:07:06.713Z,101344.75
2022-07-28T08:09:34.855Z,101350.69
2022-07-28T08:12:03.134Z,101333.19
2022-07-28T08:14:30.984Z,101331.88
2022-07-28T08:17:00.361Z,101336.84
2022-07-28T08:19:28.223Z,101331.16
2022-07-28T08:21:56.454Z,101338.81
2022-07-28T08:24:32.292Z,101331.31
2022-07-28T08:27:01.009Z,101336.44
2022-07-28T08:29:28.846Z,101331.56
2022-07-28T08:31:56.711Z,101332.19
2022-07-28T08:34:32.851Z,101330.09
2022-07-28T08:37:02.866Z,101331.47
2022-07-28T08:39:31.294Z,101334.56
2022-07-28T08:42:03.346Z,101327.75
2022-07-28T08:44:39.026Z,101329.97
2022-07-28T08:47:11.055Z,101326.81
2022-07-28T08:49:43.395Z,101322.97
2022-07-28T08:52:13.189Z,101322.25
2022-07-28T08:54:44.821Z,101321.97
2022-07-28T08:57:23.521Z,101326.94
2022-07-28T08:59:53.463Z,101310.19
2022-07-28T09:02:22.528Z,101321.25
2022-07-28T09:04:52.394Z,101324.56
2022-07-28T09:07:20.856Z,101315.34
2022-07-28T09:09:49.769Z,101319.44
2022-07-28T09:12:18.079Z,101319.84
2022-07-28T09:14:47.047Z,101321.47
2022-07-28T09:17:15.065Z,101322.28
2022-07-28T09:19:43.112Z,101320.09
2022-07-28T09:22:13.366Z,101324.09
2022-07-28T09:24:44.578Z,101313.66
2022-07-28T09:27:13.766Z,101328.03
2022-07-28T09:29:45.525Z,101318.63
2022-07-28T09:32:15.228Z,101326.00
2022-07-28T09:34:44.173Z,101321.94
2022-07-28T09:37:24.770Z,101323.19
2022-07-28T09:39:58.180Z,101320.94
2022-07-28T09:42:26.914Z,101324.69
2022-07-28T09:45:23.016Z,101315.91
2022-07-28T09:48:10.054Z,101320.59
2022-07-28T09:50:38.725Z,101313.59
2022-07-28T09:53:27.282Z,101311.97
2022-07-28T09:55:57.805Z,101315.75
2022-07-28T09:58:26.780Z,101312.50
2022-07-28T10:01:16.244Z,101313.84
2022-07-28T10:03:49.734Z,101298.47
2022-07-28T10:06:24.671Z,101310.75
2022-07-28T10:08:54.926Z,101305.19
2022-07-28T10:11:26.836Z,101296.13
2022-07-28T10:13:57.014Z,101291.00
2022-07-28T10:16:26.639Z,101285.25
2022-07-28T10:18:54.966Z,101297.28
2022-07-28T10:21:25.337Z,101287.31
2022-07-28T10:23:56.759Z,101295.75
2022-07-28T10:26:29.157Z,101286.03
2022-07-28T10:28:57.713Z,101289.97
2022-07-28T10:31:33.915Z,101284.81
2022-07-28T10:34:03.611Z,101281.16
2022-07-28T10:36:33.539Z,101281.47
2022-07-28T10:39:13.096Z,101284.97
2022-07-28T10:41:42.532Z,101282.63
2022-07-28T10:44:14.502Z,101272.47
2022-07-28T10:46:44.789Z,101272.09
2022-07-28T10:49:14.926Z,101275.09
2022-07-28T10:52:02.509Z,101273.72
2022-07-28T10:54:37.592Z,101263.47
2022-07-28T10:57:12.827Z,101257.50
2022-07-28T11:00:12.899Z,101269.31
2022-07-28T11:02:50.372Z,101251.91
2022-07-28T11:05:32.557Z,101254.41
2022-07-28T11:08:02.187Z,101254.09
2022-07-28T11:10:43.271Z,101259.34
2022-07-28T11:13:24.723Z,101256.00
2022-07-28T11:15:58.543Z,101255.56
2022-07-28T11:18:29.096Z,101264.00
2022-07-28T11:21:16.571Z,101250.25
2022-07-28T11:23:48.241Z,101250.00
2022-07-28T11:26:38.633Z,101261.13
2022-07-28T11:29:16.387Z,101248.47
2022-07-28T11:32:04.499Z,101248.28
2022-07-28T11:35:08.677Z,101240.97
2022-07-28T11:38:08.998Z,101244.03
2022-07-28T11:40:39.017Z,101238.16
2022-07-28T11:43:36.525Z,101223.09
2022-07-28T11:46:37.554Z,101227.25
2022-07-28T11:49:24.941Z,101228.09
2022-07-28T11:52:20.800Z,101231.34
2022-07-28T11:54:52.521Z,101225.72
2022-07-28T11:57:21.407Z,101224.16
2022-07-28T11:59:53.406Z,101222.91
2022-07-28T12:02:27.544Z,101224.84
2022-07-28T12:04:58.022Z,101222.13
2022-07-28T12:07:48.261Z,101217.44
2022-07-28T12:10:54.403Z,101211.59
2022-07-28T12:13:28.336Z,101221.13
2022-07-28T12:15:58.014Z,101215.50
2022-07-28T12:18:26.112Z,101217.69
2022-07-28T12:20:54.963Z,101216.09
2022-07-28T12:23:38.642Z,101214.34
2022-07-28T12:26:12.141Z,101220.50
2022-07-28T12:28:40.225Z,101213.81
2022-07-28T12:31:13.592Z,101218.53
2022-07-28T12:33:41.634Z,101208.47
2022-07-28T12:36:09.896Z,101204.78
2022-07-28T12:38:37.824Z,101201.03
2022-07-28T12:41:15.147Z,101198.78
2022-07-28T12:43:50.703Z,101200.25
2022-07-28T12:46:23.052Z,101197.59
2022-07-28T12:48:55.771Z,101189.91
2022-07-28T12:51:37.909Z,101179.44
2022-07-28T12:54:07.974Z,101188.22
2022-07-28T12:56:45.831Z,101177.63
2022-07-28T12:59:14.415Z,101187.03
2022-07-28T13:01:48.153Z,101182.31
2022-07-28T13:04:17.273Z,101179.50
2022-07-28T13:06:56.385Z,101177.59
2022-07-28T13:09:32.832Z,101175.84
2022-07-28T13:12:03.448Z,101168.25
2022-07-28T13:14:40.822Z,101167.19
2022-07-28T13:17:10.048Z,101172.31
2022-07-28T13:19:37.931Z,101171.03
2022-07-28T13:22:09.247Z,101161.47
2022-07-28T13:24:37.372Z,101162.88
2022-07-28T13:27:06.915Z,101160.84
2022-07-28T13:29:35.827Z,101158.47
2022-07-28T13:32:03.875Z,101159.94
2022-07-28T13:34:33.175Z,101153.56
2022-07-28T13:37:01.094Z,101151.09
2022-07-28T13:39:28.942Z,101144.03
2022-07-28T13:41:59.080Z,101149.72
2022-07-28T13:44:27.722Z,101154.06
2022-07-28T13:46:56.709Z,101153.03
2022-07-28T13:49:28.294Z,101153.88
2022-07-28T13:51:59.660Z,101147.09
2022-07-28T13:54:28.572Z,101129.81
2022-07-28T13:56:56.502Z,101146.59
2022-07-28T13:59:26.434Z,101129.50
2022-07-28T14:01:55.345Z,101131.94
2022-07-28T14:04:23.640Z,101128.38
2022-07-28T14:06:51.877Z,101118.34
2022-07-28T14:09:21.610Z,101121.72
2022-07-28T14:11:53.517Z,101123.63
2022-07-28T14:14:24.891Z,101120.31
2022-07-28T14:16:55.002Z,101120.13
2022-07-28T14:19:39.115Z,101122.75
2022-07-28T14:22:12.765Z,101120.19
2022-07-28T14:24:43.273Z,101112.66
2022-07-28T14:27:11.397Z,101110.47
2022-07-28T14:29:39.612Z,101109.03
2022-07-28T14:32:07.930Z,101115.13
2022-07-28T14:34:35.874Z,101110.09
2022-07-28T14:37:08.798Z,101117.06
2022-07-28T14:39:37.730Z,101106.22
2022-07-28T14:42:07.340Z,101101.63
2022-07-28T14:44:35.906Z,101106.66
2022-07-28T14:47:04.025Z,101098.53
2022-07-28T14:49:31.947Z,101101.22
2022-07-28T14:52:00.267Z,101098.75
2022-07-28T14:54:28.809Z,101100.09
2022-07-28T14:56:57.165Z,101096.94
2022-07-28T14:59:26.570Z,101097.66
2022-07-28T15:01:54.536Z,101099.41
2022-07-28T15:04:22.569Z,101098.97
2022-07-28T15:06:50.390Z,101096.38
2022-07-28T15:09:18.274Z,101094.19
2022-07-28T15:11:47.500Z,101095.72
2022-07-28T15:14:16.425Z,101090.03
2022-07-28T15:16:50.914Z,101098.06
2022-07-28T15:19:18.767Z,101091.34
2022-07-28T15:21:47.709Z,101084.78
2022-07-28T15:24:16.970Z,101089.06
2022-07-28T15:26:45.066Z,101079.72
2022-07-28T15:29:13.035Z,101082.84
2022-07-28T15:31:43.446Z,101090.25
2022-07-28T15:34:15.092Z,101080.41
2022-07-28T15:36:43.382Z,101078.03
2022-07-28T15:39:14.228Z,101077.59
2022-07-28T15:41:43.001Z,101082.03
2022-07-28T15:44:12.117Z,101081.34
2022-07-28T15:46:40.555Z,101079.69
2022-07-28T15:49:09.785Z,101080.81
2022-07-28T15:51:39.988Z,101068.38
2022-07-28T15:54:08.158Z,101074.25
2022-07-28T15:56:36.964Z,101075.19
2022-07-28T15:59:07.674Z,101056.25
2022-07-28T16:01:36.111Z,101069.19
2022-07-28T16:04:04.086Z,101065.25
2022-07-28T16:06:46.341Z,101066.84
2022-07-28T16:09:15.934Z,101057.63
2022-07-28T16:11:44.234Z,101064.13
2022-07-28T16:14:12.360Z,101058.53
2022-07-28T16:16:40.583Z,101065.44
2022-07-28T16:19:20.160Z,101067.53
2022-07-28T16:21:57.502Z,101062.06
2022-07-28T16:24:26.831Z,101055.84
2022-07-28T16:26:54.688Z,101059.34
2022-07-28T16:29:22.583Z,101058.16
2022-07-28T16:31:50.537Z,101059.63
2022-07-28T16:34:18.663Z,101049.78
2022-07-28T16:36:46.618Z,101052.81
2022-07-28T16:39:14.597Z,101052.00
2022-07-28T16:41:47.549Z,101053.69
2022-07-28T16:44:16.617Z,101058.00
2022-07-28T16:46:44.923Z,101051.41
2022-07-28T16:49:12.985Z,101057.69
2022-07-28T16:51:40.872Z,101048.66
2022-07-28T16:54:08.726Z,101050.25
2022-07-28T16:56:36.606Z,101052.56
2022-07-28T16:59:05.946Z,101053.84
2022-07-28T17:01:33.810Z,101056.94
2022-07-28T17:04:03.152Z,101056.78
2022-07-28T17:06:31.128Z,101057.25
2022-07-28T17:08:59.035Z,101050.53
2022-07-28T17:11:27.369Z,101052.97
2022-07-28T17:13:55.355Z,101041.78
2022-07-28T17:16:24.687Z,101049.59
2022-07-28T17:18:52.700Z,101051.06
2022-07-28T17:21:21.034Z,101056.25
2022-07-28T17:23:49.098Z,101052.25
2022-07-28T17:27:12.979Z,101048.25
2022-07-28T17:29:05.566Z,101050.66
2022-07-28T17:31:34.937Z,101048.41
2022-07-28T17:34:02.908Z,101044.34
2022-07-28T17:36:34.077Z,101047.59
2022-07-28T17:39:02.495Z,101046.22
2022-07-28T17:41:31.298Z,101050.34
2022-07-28T17:43:59.144Z,101037.38
2022-07-28T17:46:27.060Z,101054.03
2022-07-28T17:48:56.535Z,101048.06
2022-07-28T17:51:24.482Z,101052.97
2022-07-28T17:53:52.451Z,101044.38
2022-07-28T17:56:22.698Z,101047.59
2022-07-28T17:58:50.752Z,101048.81
2022-07-28T18:01:18.904Z,101044.66
2022-07-28T18:03:56.894Z,101036.97
2022-07-28T18:06:29.479Z,101037.44
2022-07-28T18:08:57.731Z,101044.19
2022-07-28T18:11:33.115Z,101041.00
2022-07-28T18:14:03.656Z,101039.59
2022-07-28T18:16:34.180Z,101044.53
2022-07-28T18:19:02.796Z,101047.59
2022-07-28T18:21:32.197Z,101040.78
2022-07-28T18:24:03.001Z,101051.16
2022-07-28T18:26:30.816Z,101056.97
2022-07-28T18:28:58.891Z,101053.78
2022-07-28T18:31:27.987Z,101054.25
2022-07-28T18:33:55.921Z,101043.97
2022-07-28T18:36:23.732Z,101059.75
2022-07-28T18:38:52.970Z,101056.44
2022-07-28T18:41:20.867Z,101057.78
2022-07-28T18:43:48.668Z,101052.78
2022-07-28T18:46:16.824Z,101047.75
2022-07-28T18:48:44.687Z,101056.25
2022-07-28T18:51:16.821Z,101059.34
2022-07-28T18:53:44.647Z,101056.13
2022-07-28T18:56:13.996Z,101059.34
2022-07-28T18:58:43.330Z,101057.06
2022-07-28T19:01:13.352Z,101056.56
2022-07-28T19:03:42.022Z,101051.50
2022-07-28T19:06:11.330Z,101043.78
2022-07-28T19:08:39.327Z,101057.72
2022-07-28T19:11:07.175Z,101051.75
2022-07-28T19:13:36.343Z,101054.78
2022-07-28T19:16:04.256Z,101054.28
2022-07-28T19:18:32.179Z,101058.16
2022-07-28T19:21:00.084Z,101054.84
2022-07-28T19:23:30.175Z,101060.56
2022-07-28T19:25:58.166Z,101054.72
2022-07-28T19:28:25.983Z,101058.59
2022-07-28T19:30:55.839Z,101059.78
2022-07-28T19:33:24.493Z,101068.22
2022-07-28T19:35:52.391Z,101064.91
2022-07-28T19:38:20.206Z,101071.50
2022-07-28T19:40:48.085Z,101064.66
2022-07-28T19:43:15.919Z,101070.38
2022-07-28T19:45:43.939Z,101079.56
2022-07-28T19:48:13.460Z,101079.78
2022-07-28T19:50:49.958Z,101081.84
2022-07-28T19:53:19.062Z,101084.78
2022-07-28T19:55:50.669Z,101088.59
2022-07-28T19:58:19.478Z,101094.28
2022-07-28T20:00:48.488Z,101094.59
2022-07-28T20:04:01.719Z,101099.31
2022-07-28T20:06:06.012Z,101105.91
2022-07-28T20:08:34.023Z,101099.91
2022-07-28T20:11:01.861Z,101108.25
2022-07-28T20:13:29.815Z,101101.34
2022-07-28T20:15:57.649Z,101108.81
2022-07-28T20:18:26.908Z,101109.06
2022-07-28T20:20:54.775Z,101112.88
2022-07-28T20:23:22.593Z,101118.47
2022-07-28T20:25:50.429Z,101112.47
2022-07-28T20:28:18.546Z,101110.00
2022-07-28T20:30:46.432Z,101112.97
2022-07-28T20:33:14.328Z,101104.22
2022-07-28T20:35:43.546Z,101109.78
2022-07-28T20:38:11.351Z,101103.72
2022-07-28T20:40:39.189Z,101108.41
2022-07-28T20:43:07.278Z,101112.28
2022-07-28T20:45:35.263Z,101114.25
2022-07-28T20:48:03.136Z,101105.59
2022-07-28T20:50:31.021Z,101110.28
2022-07-28T20:53:00.818Z,101113.16
2022-07-28T20:55:38.608Z,101115.19
2022-07-28T20:58:06.425Z,101113.56
2022-07-28T21:00:34.378Z,101109.22
2022-07-28T21:03:02.278Z,101107.53
2022-07-28T21:05:35.511Z,101110.34
2022-07-28T21:08:09.133Z,101108.66
2022-07-28T21:10:43.731Z,101117.72
2022-07-28T21:13:11.610Z,101108.88
2022-07-28T21:15:39.479Z,101108.09
2022-07-28T21:18:07.451Z,101117.22
2022-07-28T21:20:35.528Z,101122.78
2022-07-28T21:23:05.311Z,101127.38
2022-07-28T21:25:33.333Z,101125.66
2022-07-28T21:28:18.592Z,101122.22
2022-07-28T21:30:46.488Z,101127.75
2022-07-28T21:33:22.399Z,101125.19
2022-07-28T21:35:51.101Z,101128.03
2022-07-28T21:38:20.279Z,101129.06
2022-07-28T21:40:48.209Z,101138.16
2022-07-28T21:43:16.060Z,101129.31
2022-07-28T21:45:45.628Z,101132.06
2022-07-28T21:48:13.694Z,101131.28
2022-07-28T21:50:41.543Z,101135.94
2022-07-28T21:53:14.019Z,101132.47
2022-07-28T21:55:46.214Z,101130.84
2022-07-28T21:58:14.614Z,101135.50
2022-07-28T22:00:43.226Z,101137.38
2022-07-28T22:03:11.538Z,101140.22
2022-07-28T22:05:39.507Z,101143.00
2022-07-28T22:08:08.693Z,101153.91
2022-07-28T22:10:36.743Z,101153.13
2022-07-28T22:13:05.911Z,101159.59
2022-07-28T22:15:33.789Z,101155.19
2022-07-28T22:18:01.606Z,101164.25
2022-07-28T22:20:30.234Z,101153.69
2022-07-28T22:22:58.185Z,101162.81
2022-07-28T22:25:26.007Z,101167.38
2022-07-28T22:27:53.988Z,101172.91
2022-07-28T22:30:23.216Z,101170.38
2022-07-28T22:32:51.063Z,101178.50
2022-07-28T22:35:19.084Z,101178.69
2022-07-28T22:37:47.198Z,101176.09
2022-07-28T22:40:16.147Z,101183.38
2022-07-28T22:42:45.002Z,101182.59
2022-07-28T22:45:13.453Z,101184.50
2022-07-28T22:47:43.096Z,101180.16
2022-07-28T22:50:11.562Z,101180.22
2022-07-28T22:52:39.459Z,101189.25
2022-07-28T22:55:08.489Z,101192.91
2022-07-28T22:57:36.354Z,101194.78
2022-07-28T23:00:05.911Z,101207.38
2022-07-28T23:02:35.607Z,101195.84
2022-07-28T23:05:06.802Z,101199.53
2022-07-28T23:07:51.106Z,101205.84
2022-07-28T23:10:21.435Z,101208.63
2022-07-28T23:12:49.299Z,101215.84
2022-07-28T23:15:17.151Z,101214.16
2022-07-28T23:17:44.985Z,101212.44
2022-07-28T23:20:14.320Z,101214.25
2022-07-28T23:22:42.207Z,101211.63
2022-07-28T23:25:10.630Z,101205.41
2022-07-28T23:27:38.539Z,101200.13
2022-07-28T23:30:07.540Z,101200.16
2022-07-28T23:32:35.381Z,101194.84
2022-07-28T23:35:03.234Z,101197.56
2022-07-28T23:37:35.489Z,101198.53
2022-07-28T23:40:03.744Z,101194.09
2022-07-28T23:42:31.570Z,101201.28
2022-07-28T23:44:59.412Z,101196.81
2022-07-28T23:47:27.272Z,101185.22
2022-07-28T23:49:55.424Z,101184.34
2022-07-28T23:52:23.384Z,101199.50
2022-07-28T23:54:52.609Z,101197.75
2022-07-28T23:57:20.406Z,101196.00
2022-07-28T23:59:48.397Z,101195.13
